McCrory, Arkansas
Current Conditions -  °F | °C
As of 4:56 PM on Friday 28 Nov 2014 (Local Time) from KM19 Reporting Station
Clear Clear  
Wind Chill: 44°   Ceiling: Unl
Heat Index: 48°   Visibility: 10mi
Dew Point: 37°   Wind: 9mph
Humidity: 66%   Direction: 190°S
Pressure: 30.11"   Gusts: NA
Location:  35.26°N, 91.2°W
Report Text: KM19 282256Z AUTO 19008KT 10SM CLR 09/03 A3011 RMK AO2 T00880027 SLP196
Loading
Personal Weather Stations






























Interactive Weather Map New forecast layout! Learn more

10-Day Weather Forecast

Advertisements
Track Severe Weather on mobile